Time;durP1;ratioP1;P1;durP2;ratioP2;P2;SDS_P1;SDS_P2;PMS_P1;PMS_P2;Temp;Humidity;BMP_temperature;BMP_pressure;BME280_temperature;BME280_humidity;BME280_pressure;Samples;Min_cycle;Max_cycle;Signal;HPM_P1;HPM_P2
2022/10/10 00:01:27;;;;;;;34.60;17.70;;;;;;;6.30;100.00;100995.88;5113323;28;20067;-74
2022/10/10 00:03:57;;;;;;;29.80;16.60;;;;;;;6.04;100.00;101005.31;5113879;28;20389;-73
2022/10/10 00:06:24;;;;;;;31.35;16.65;;;;;;;6.23;100.00;101004.06;5117503;27;20040;-73
2022/10/10 00:08:52;;;;;;;34.35;17.88;;;;;;;6.25;100.00;100998.63;5117236;28;20047;-74
2022/10/10 00:11:23;;;;;;;29.50;16.20;;;;;;;6.16;100.00;101005.09;5117506;28;20044;-73
2022/10/10 00:13:52;;;;;;;30.50;16.60;;;;;;;6.15;100.00;101013.16;5118145;28;20067;-74
2022/10/10 00:16:19;;;;;;;28.58;14.88;;;;;;;6.24;100.00;101007.59;5117300;28;20048;-74
2022/10/10 00:18:48;;;;;;;29.45;16.00;;;;;;;6.32;100.00;101002.09;5117260;28;20043;-74
2022/10/10 00:21:17;;;;;;;28.75;16.48;;;;;;;6.32;100.00;101002.09;5100761;28;20035;-73
2022/10/10 00:23:44;;;;;;;27.48;14.60;;;;;;;6.23;100.00;101001.38;5116610;28;20043;-74
2022/10/10 00:26:12;;;;;;;25.92;14.70;;;;;;;6.11;100.00;100996.22;5117107;28;20058;-74
2022/10/10 00:28:39;;;;;;;28.42;15.43;;;;;;;6.21;100.00;100999.63;5116939;28;20043;-74
2022/10/10 00:31:07;;;;;;;31.73;15.75;;;;;;;5.98;100.00;100995.56;5116956;28;20089;-73
2022/10/10 00:33:35;;;;;;;27.23;15.77;;;;;;;6.00;100.00;100999.09;5117090;28;20089;-74
2022/10/10 00:36:02;;;;;;;28.77;16.13;;;;;;;5.94;100.00;100989.34;5116837;28;20051;-74
2022/10/10 00:38:31;;;;;;;35.75;18.40;;;;;;;6.18;100.00;100995.22;5116225;28;20050;-74
2022/10/10 00:40:59;;;;;;;35.67;19.35;;;;;;;6.08;100.00;100997.19;5116636;28;20052;-74
2022/10/10 00:43:27;;;;;;;34.17;17.33;;;;;;;6.07;100.00;101003.47;5116551;28;20077;-73
2022/10/10 00:45:54;;;;;;;31.38;16.35;;;;;;;6.06;100.00;101004.38;5116690;28;20047;-74
2022/10/10 00:48:24;;;;;;;27.50;15.13;;;;;;;6.03;100.00;100999.06;5116735;28;20496;-74
2022/10/10 00:50:55;;;;;;;27.35;14.38;;;;;;;5.99;100.00;100997.34;5116613;28;20055;-74
2022/10/10 00:53:26;;;;;;;23.48;13.95;;;;;;;5.81;100.00;100995.88;5115931;28;20058;-74
2022/10/10 00:55:56;;;;;;;23.35;13.10;;;;;;;5.84;100.00;101008.31;5116413;28;20112;-74
2022/10/10 00:58:23;;;;;;;24.30;12.82;;;;;;;5.87;100.00;101003.81;5116315;28;20055;-74
2022/10/10 01:00:52;;;;;;;24.35;13.25;;;;;;;5.89;100.00;101001.06;5116282;28;20047;-74
2022/10/10 01:03:19;;;;;;;25.73;13.75;;;;;;;5.90;100.00;101003.75;5116386;28;20066;-74
2022/10/10 01:05:47;;;;;;;23.35;13.20;;;;;;;5.96;100.00;101002.75;5116435;28;20054;-74
2022/10/10 01:08:15;;;;;;;26.40;14.23;;;;;;;5.92;100.00;100999.22;5116062;28;20055;-74
2022/10/10 01:10:50;;;;;;;29.70;15.70;;;;;;;6.05;100.00;101007.97;5116331;28;20047;-73
2022/10/10 01:13:27;;;;;;;38.07;18.87;;;;;;;5.90;100.00;101003.75;5116729;27;20044;-74
2022/10/10 01:15:55;;;;;;;;;;;;;;;6.02;100.00;101008.03;5116262;28;21452;-74
2022/10/10 01:18:28;;;;;;;31.40;16.23;;;;;;;5.91;100.00;101005.50;5116001;28;20376;-76
2022/10/10 01:21:03;;;;;;;31.17;17.20;;;;;;;5.71;100.00;101013.00;5099584;28;20048;-74
2022/10/10 01:23:47;;;;;;;33.72;17.23;;;;;;;5.58;100.00;101012.38;5117913;28;20047;-74
2022/10/10 01:26:38;;;;;;;28.75;15.20;;;;;;;5.74;100.00;101007.63;5115913;28;20497;-74
2022/10/10 01:29:13;;;;;;;30.85;15.50;;;;;;;5.66;100.00;101015.78;5116901;28;20404;-74
2022/10/10 01:31:45;;;;;;;29.17;15.17;;;;;;;5.69;100.00;101007.69;5115917;28;20103;-74
2022/10/10 01:34:18;;;;;;;25.45;13.98;;;;;;;5.61;100.00;101010.50;5115996;28;20126;-73
2022/10/10 01:36:51;;;;;;;25.92;14.02;;;;;;;5.65;100.00;101012.22;5115523;28;20047;-74
2022/10/10 01:39:23;;;;;;;26.30;14.70;;;;;;;5.68;100.00;101002.34;5115787;28;20047;-74
2022/10/10 01:41:55;;;;;;;28.02;15.05;;;;;;;5.69;100.00;101001.44;5115299;28;20048;-74
2022/10/10 01:44:23;;;;;;;29.20;14.80;;;;;;;5.65;100.00;101003.31;5116703;28;20047;-74
2022/10/10 01:46:51;;;;;;;29.70;14.20;;;;;;;5.74;100.00;101002.25;5115692;28;20043;-77
2022/10/10 01:49:19;;;;;;;27.02;15.02;;;;;;;5.83;100.00;100993.16;5115950;28;20054;-74
2022/10/10 01:51:57;;;;;;;32.05;18.00;;;;;;;5.67;100.00;101001.47;5115164;28;20052;-74
2022/10/10 01:54:35;;;;;;;38.78;22.25;;;;;;;5.64;100.00;101001.53;5116012;28;20047;-73
2022/10/10 01:57:15;;;;;;;41.42;23.20;;;;;;;5.77;100.00;100996.84;5115253;28;20089;-74
2022/10/10 01:59:53;;;;;;;38.25;21.88;;;;;;;5.73;100.00;100997.81;5114834;28;20044;-74
2022/10/10 02:02:27;;;;;;;32.55;19.30;;;;;;;5.49;100.00;101003.53;5115090;28;20047;-73
2022/10/10 02:04:58;;;;;;;33.10;17.85;;;;;;;5.43;100.00;101010.81;5114802;28;20040;-73
2022/10/10 02:07:30;;;;;;;32.45;18.02;;;;;;;5.50;100.00;101004.44;5116759;28;20396;-73
2022/10/10 02:09:59;;;;;;;30.77;16.45;;;;;;;5.48;100.00;101003.59;5115473;28;20404;-74
2022/10/10 02:12:28;;;;;;;23.83;14.77;;;;;;;5.49;100.00;100998.19;5114875;28;20044;-74
2022/10/10 02:15:00;;;;;;;22.00;13.43;;;;;;;5.50;100.00;100999.09;5114756;28;20074;-73
2022/10/10 02:17:28;;;;;;;22.90;13.13;;;;;;;5.41;100.00;101010.84;5114682;28;20055;-74
2022/10/10 02:19:57;;;;;;;22.77;12.75;;;;;;;5.37;100.00;101009.13;5105274;28;20047;-74
2022/10/10 02:22:25;;;;;;;23.98;13.40;;;;;;;5.44;100.00;101009.91;5108535;28;20401;-73
2022/10/10 02:24:53;;;;;;;23.17;12.25;;;;;;;5.44;100.00;101013.47;5114700;28;20043;-76
2022/10/10 02:27:25;;;;;;;20.77;11.40;;;;;;;5.27;100.00;101008.38;5113986;28;20069;-74
2022/10/10 02:29:54;;;;;;;21.98;12.70;;;;;;;5.48;100.00;101008.94;5114528;28;20055;-73
2022/10/10 02:32:27;;;;;;;20.15;12.43;;;;;;;5.44;100.00;101005.41;5114759;28;20095;-74
2022/10/10 02:34:57;;;;;;;22.48;11.60;;;;;;;5.34;100.00;101015.41;5114496;28;20432;-73
2022/10/10 02:37:25;;;;;;;23.65;14.13;;;;;;;5.21;100.00;101013.81;5104857;28;20040;-73
2022/10/10 02:39:57;;;;;;;27.55;18.42;;;;;;;5.26;100.00;101016.44;5100654;28;20076;-74
2022/10/10 02:42:25;;;;;;;22.25;12.32;;;;;;;4.96;100.00;101013.31;5094095;28;20059;-73
2022/10/10 02:44:53;;;;;;;17.63;9.88;;;;;;;4.95;100.00;101014.22;5094016;28;20051;-73
2022/10/10 02:47:22;;;;;;;16.90;9.57;;;;;;;5.06;100.00;101015.84;5094063;28;20044;-74
2022/10/10 02:49:50;;;;;;;21.60;9.38;;;;;;;5.08;100.00;101027.41;5093516;28;20044;-74
2022/10/10 02:52:18;;;;;;;15.20;8.93;;;;;;;4.89;100.00;101017.84;5094165;28;20048;-73
2022/10/10 02:54:45;;;;;;;16.73;8.40;;;;;;;5.16;100.00;101005.88;5096922;28;20050;-74
2022/10/10 02:57:13;;;;;;;15.80;8.82;;;;;;;5.20;100.00;101009.38;5113704;28;20554;-73
2022/10/10 02:59:41;;;;;;;15.23;8.75;;;;;;;5.00;100.00;101009.66;5113733;28;20493;-74
2022/10/10 03:02:09;;;;;;;16.08;9.30;;;;;;;5.14;100.00;101009.47;5113860;28;20047;-74
2022/10/10 03:04:38;;;;;;;17.23;10.25;;;;;;;5.36;100.00;100999.31;5113226;28;20058;-74
2022/10/10 03:07:05;;;;;;;19.15;11.02;;;;;;;5.13;100.00;101000.56;5113632;28;20039;-73
2022/10/10 03:09:33;;;;;;;22.10;11.10;;;;;;;5.08;100.00;101007.75;5113868;28;20048;-73
2022/10/10 03:12:01;;;;;;;18.00;10.85;;;;;;;4.92;100.00;101008.00;5113999;28;20048;-73
2022/10/10 03:14:28;;;;;;;18.17;10.90;;;;;;;4.92;100.00;101002.66;5114040;28;20051;-74
2022/10/10 03:16:56;;;;;;;16.67;9.50;;;;;;;4.83;100.00;100996.53;5113473;28;20061;-74
2022/10/10 03:19:24;;;;;;;15.73;8.88;;;;;;;4.77;100.00;101005.56;5113487;28;20126;-73
2022/10/10 03:21:53;;;;;;;16.67;9.18;;;;;;;4.71;100.00;101009.19;5113431;28;20044;-77
2022/10/10 03:24:20;;;;;;;16.05;9.30;;;;;;;4.67;100.00;101017.25;5113815;28;20089;-74
2022/10/10 03:26:48;;;;;;;14.90;8.68;;;;;;;4.60;100.00;101020.03;5112930;27;20039;-74
2022/10/10 03:29:16;;;;;;;15.50;8.98;;;;;;;4.56;100.00;101014.75;5113551;28;20048;-73
2022/10/10 03:31:43;;;;;;;18.33;8.98;;;;;;;4.24;100.00;101014.22;5113407;28;20047;-74
2022/10/10 03:34:11;;;;;;;16.27;9.00;;;;;;;4.22;100.00;101016.00;5113741;28;20047;-73
2022/10/10 03:36:38;;;;;;;17.45;9.75;;;;;;;4.40;100.00;101028.28;5113614;28;20047;-74
2022/10/10 03:39:08;;;;;;;17.13;9.55;;;;;;;4.40;100.00;101020.28;5113615;28;20044;-74
2022/10/10 03:41:36;;;;;;;17.42;10.10;;;;;;;4.57;100.00;101022.75;5113379;28;20121;-73
2022/10/10 03:44:03;;;;;;;19.08;10.63;;;;;;;4.71;100.00;101016.34;5113768;28;20105;-74
2022/10/10 03:46:31;;;;;;;18.50;10.48;;;;;;;4.62;100.00;101026.25;5112953;28;20071;-74
2022/10/10 03:48:58;;;;;;;17.25;10.10;;;;;;;4.63;100.00;101011.94;5113515;28;20043;-74
2022/10/10 03:51:26;;;;;;;18.98;10.75;;;;;;;4.69;100.00;101020.81;5113499;28;20043;-73
2022/10/10 03:53:54;;;;;;;20.27;10.35;;;;;;;4.88;100.00;101017.00;5112991;28;20047;-73
2022/10/10 03:56:23;;;;;;;19.92;10.18;;;;;;;4.97;100.00;101012.41;5113302;28;20059;-74
2022/10/10 03:58:51;;;;;;;19.45;10.85;;;;;;;4.63;100.00;101016.44;5113465;28;20044;-74
2022/10/10 04:01:18;;;;;;;20.63;10.82;;;;;;;4.54;100.00;101017.44;5113038;28;20121;-74
2022/10/10 04:03:46;;;;;;;22.17;11.85;;;;;;;4.48;100.00;101013.03;5113462;28;20044;-73
2022/10/10 04:06:13;;;;;;;23.38;11.90;;;;;;;4.53;100.00;101014.78;5113505;28;20538;-74
2022/10/10 04:08:41;;;;;;;19.95;11.02;;;;;;;4.82;100.00;101006.38;5113425;28;20043;-73
2022/10/10 04:11:08;;;;;;;19.88;11.15;;;;;;;4.70;100.00;101014.56;5112155;28;20043;-73
2022/10/10 04:13:38;;;;;;;20.20;10.27;;;;;;;4.61;100.00;101012.91;5113293;28;20492;-74
2022/10/10 04:16:05;;;;;;;20.35;10.93;;;;;;;4.32;100.00;101012.34;5112838;28;20055;-74
2022/10/10 04:18:33;;;;;;;20.20;10.88;;;;;;;4.39;100.00;101021.16;5113329;28;20058;-74
2022/10/10 04:21:02;;;;;;;18.35;10.23;;;;;;;4.56;100.00;101020.97;5097310;28;20484;-74
2022/10/10 04:23:30;;;;;;;19.35;10.95;;;;;;;4.55;100.00;101018.31;5113082;28;20048;-73
2022/10/10 04:25:57;;;;;;;18.67;9.73;;;;;;;4.51;100.00;101012.13;5113216;28;20480;-72
2022/10/10 04:28:25;;;;;;;17.60;10.02;;;;;;;4.45;100.00;101012.19;5110648;28;20051;-73
2022/10/10 04:30:55;;;;;;;19.55;10.23;;;;;;;4.51;100.00;101016.59;5109001;28;20389;-73
2022/10/10 04:33:23;;;;;;;19.98;10.50;;;;;;;4.48;100.00;101006.81;5108937;28;20059;-74
2022/10/10 04:35:50;;;;;;;25.33;13.70;;;;;;;4.48;100.00;101009.47;5109273;28;20063;-73
2022/10/10 04:38:20;;;;;;;38.90;20.05;;;;;;;4.61;100.00;101005.72;5109407;28;20055;-73
2022/10/10 04:40:48;;;;;;;91.82;43.03;;;;;;;4.76;100.00;101001.09;5108741;28;20139;-73
2022/10/10 04:43:16;;;;;;;63.90;31.70;;;;;;;4.61;100.00;100995.03;5109089;28;20063;-71
2022/10/10 04:45:44;;;;;;;57.03;28.98;;;;;;;4.73;100.00;100996.66;5108684;28;20048;-73
2022/10/10 04:48:13;;;;;;;41.53;20.63;;;;;;;4.63;100.00;100998.56;5109518;28;20087;-74
2022/10/10 04:50:40;;;;;;;32.88;17.83;;;;;;;4.56;100.00;100998.69;5111072;28;20040;-73
2022/10/10 04:53:08;;;;;;;50.88;26.60;;;;;;;4.46;100.00;101003.28;5112953;28;20047;-73
2022/10/10 04:55:35;;;;;;;47.35;23.77;;;;;;;4.66;100.00;100999.44;5095742;28;20499;-73
2022/10/10 04:58:03;;;;;;;31.50;16.45;;;;;;;4.67;100.00;100990.50;5091718;28;20048;-73
2022/10/10 05:00:30;;;;;;;28.40;15.07;;;;;;;4.51;100.00;101000.53;5108820;28;20039;-75
2022/10/10 05:02:58;;;;;;;22.58;12.43;;;;;;;4.54;100.00;101005.84;5116253;28;20056;-73
2022/10/10 05:05:27;;;;;;;19.35;10.55;;;;;;;4.68;100.00;100997.63;5116058;28;20055;-73
2022/10/10 05:07:55;;;;;;;19.27;10.13;;;;;;;4.65;100.00;100998.56;5116283;28;20108;-73
2022/10/10 05:10:22;;;;;;;17.92;8.75;;;;;;;4.56;100.00;100994.22;5115890;28;20088;-74
2022/10/10 05:12:50;;;;;;;17.15;9.40;;;;;;;4.46;100.00;100992.56;5115606;28;20093;-74
2022/10/10 05:15:20;;;;;;;18.05;9.43;;;;;;;4.43;100.00;101001.50;5116258;28;20059;-72
2022/10/10 05:17:48;;;;;;;21.08;10.85;;;;;;;4.42;100.00;101006.88;5115965;28;20044;-74
2022/10/10 05:20:15;;;;;;;18.25;9.75;;;;;;;4.47;100.00;101007.72;5104099;28;20059;-73
2022/10/10 05:22:44;;;;;;;16.63;9.07;;;;;;;4.48;100.00;100998.78;5112420;28;20043;-73
2022/10/10 05:25:12;;;;;;;15.40;8.80;;;;;;;4.70;100.00;100991.34;5116147;28;20044;-74
2022/10/10 05:27:40;;;;;;;16.80;8.20;;;;;;;4.79;100.00;101003.72;5115336;28;20062;-73
2022/10/10 05:30:08;;;;;;;15.32;8.57;;;;;;;4.66;100.00;101004.78;5116080;28;20078;-73
2022/10/10 05:32:36;;;;;;;16.65;9.18;;;;;;;4.48;100.00;101001.47;5115809;27;20400;-73
2022/10/10 05:35:04;;;;;;;15.75;8.07;;;;;;;4.39;100.00;101012.28;5112064;28;20047;-72
2022/10/10 05:37:32;;;;;;;13.50;7.10;;;;;;;4.30;100.00;101013.25;5112163;28;20047;-73
2022/10/10 05:40:01;;;;;;;16.20;7.45;;;;;;;3.90;100.00;101019.94;5111657;27;20054;-73
2022/10/10 05:42:28;;;;;;;13.95;7.70;;;;;;;4.27;100.00;101024.00;5111519;28;20051;-73
2022/10/10 05:44:56;;;;;;;14.73;8.25;;;;;;;4.09;100.00;101028.66;5112240;27;20040;-74
2022/10/10 05:47:24;;;;;;;15.05;8.10;;;;;;;4.29;100.00;101022.19;5112234;28;20048;-73
2022/10/10 05:49:52;;;;;;;16.00;8.70;;;;;;;4.42;100.00;101028.28;5112064;28;20051;-73
2022/10/10 05:52:20;;;;;;;14.57;8.02;;;;;;;4.58;100.00;101023.63;5111469;28;20051;-73
2022/10/10 05:54:47;;;;;;;14.43;8.32;;;;;;;4.76;100.00;101027.88;5111662;28;20050;-73
2022/10/10 05:57:16;;;;;;;18.70;9.55;;;;;;;4.45;100.00;101029.13;5111495;28;20044;-73
2022/10/10 05:59:45;;;;;;;17.55;9.60;;;;;;;4.58;100.00;101027.19;5111528;28;20043;-73
2022/10/10 06:02:13;;;;;;;16.75;8.85;;;;;;;4.70;100.00;101022.59;5111612;28;20040;-72
2022/10/10 06:04:40;;;;;;;18.13;9.10;;;;;;;4.75;100.00;101023.44;5111541;28;20073;-73
2022/10/10 06:07:08;;;;;;;17.65;9.32;;;;;;;4.75;100.00;101026.09;5111665;28;20042;-73
2022/10/10 06:09:36;;;;;;;18.98;9.25;;;;;;;4.93;100.00;101024.97;5111838;28;20565;-73
2022/10/10 06:12:03;;;;;;;17.30;9.50;;;;;;;5.02;100.00;101026.59;5110993;28;20305;-73
2022/10/10 06:14:32;;;;;;;18.77;9.60;;;;;;;5.23;100.00;101028.06;5110909;28;20048;-73
2022/10/10 06:17:00;;;;;;;16.52;9.07;;;;;;;5.26;100.00;101025.34;5111143;28;20048;-73
2022/10/10 06:19:28;;;;;;;18.33;9.13;;;;;;;5.17;100.00;101026.41;5106163;28;20129;-73
2022/10/10 06:21:55;;;;;;;19.67;9.60;;;;;;;5.28;100.00;101028.03;5100766;28;20052;-74
2022/10/10 06:24:23;;;;;;;17.25;9.45;;;;;;;5.24;100.00;101027.16;5111328;28;20560;-73
2022/10/10 06:26:51;;;;;;;16.25;8.57;;;;;;;5.39;100.00;101038.56;5110927;28;20539;-74
2022/10/10 06:29:18;;;;;;;15.85;8.68;;;;;;;5.48;100.00;101041.97;5111045;28;20044;-73
2022/10/10 06:31:47;;;;;;;15.98;8.25;;;;;;;5.67;100.00;101033.66;5104952;28;20100;-73
2022/10/10 06:34:14;;;;;;;16.58;8.82;;;;;;;5.57;100.00;101032.91;5103382;28;20051;-73
2022/10/10 06:36:42;;;;;;;16.98;8.68;;;;;;;5.80;100.00;101040.56;5101882;28;20044;-73
2022/10/10 06:39:10;;;;;;;18.38;9.35;;;;;;;5.75;100.00;101031.72;5108841;27;20100;-73
2022/10/10 06:41:37;;;;;;;17.65;9.20;;;;;;;6.19;100.00;101037.22;5105159;27;20040;-73
2022/10/10 06:44:05;;;;;;;17.27;9.32;;;;;;;6.39;100.00;101033.25;5064117;28;20047;-73
2022/10/10 06:46:36;;;;;;;20.23;9.18;;;;;;;6.37;100.00;101029.72;5063132;28;20048;-74
2022/10/10 06:49:05;;;;;;;17.17;8.63;;;;;;;5.99;100.00;101026.84;5061855;28;20044;-72
2022/10/10 06:51:32;;;;;;;16.08;8.63;;;;;;;5.98;100.00;101035.78;5062362;28;20048;-76
2022/10/10 06:54:00;;;;;;;17.33;9.15;;;;;;;6.06;100.00;101031.19;5062981;28;20044;-73
2022/10/10 06:56:28;;;;;;;16.50;9.20;;;;;;;6.11;100.00;101035.59;5061125;28;20094;-75
2022/10/10 06:58:55;;;;;;;20.17;10.18;;;;;;;6.25;100.00;101040.69;5061495;28;20040;-74
2022/10/10 07:01:24;;;;;;;19.88;9.90;;;;;;;6.66;100.00;101031.78;5063064;28;20121;-74
2022/10/10 07:03:52;;;;;;;17.88;9.98;;;;;;;6.45;100.00;101038.50;5062638;28;20047;-75
2022/10/10 07:06:21;;;;;;;17.98;9.82;;;;;;;6.43;100.00;101034.97;5064944;28;20044;-74
2022/10/10 07:08:48;;;;;;;19.67;10.90;;;;;;;6.97;100.00;101032.94;5066475;28;20048;-75
2022/10/10 07:11:16;;;;;;;18.45;10.80;;;;;;;7.05;100.00;101039.03;5064311;28;20040;-75
2022/10/10 07:13:43;;;;;;;31.05;15.77;;;;;;;7.16;100.00;101036.09;5067110;28;20040;-76
2022/10/10 07:16:11;;;;;;;21.48;11.73;;;;;;;7.31;100.00;101039.34;5063871;28;20041;-75
2022/10/10 07:18:39;;;;;;;20.00;11.43;;;;;;;7.43;100.00;101030.09;5066160;28;20071;-74
2022/10/10 07:21:06;;;;;;;18.75;10.38;;;;;;;7.30;100.00;101030.38;5065449;28;20521;-75
2022/10/10 07:23:35;;;;;;;18.75;10.48;;;;;;;7.02;100.00;101033.72;5063570;28;20040;-74
2022/10/10 07:26:06;;;;;;;19.73;11.10;;;;;;;7.19;100.00;101036.03;5063535;28;20048;-75
2022/10/10 07:28:33;;;;;;;19.00;11.10;;;;;;;7.36;100.00;101032.03;5063761;28;20147;-75
2022/10/10 07:31:03;;;;;;;21.10;11.57;;;;;;;7.27;100.00;101034.97;5066546;28;20091;-75
2022/10/10 07:33:34;;;;;;;19.00;11.38;;;;;;;7.48;100.00;101029.06;5064934;28;20037;-77
2022/10/10 07:36:01;;;;;;;17.95;9.95;;;;;;;7.62;100.00;101034.09;5068952;28;20052;-75
2022/10/10 07:38:29;;;;;;;19.05;10.90;;;;;;;7.60;100.00;101032.38;5071681;28;20059;-74
2022/10/10 07:40:58;;;;;;;18.35;10.50;;;;;;;7.53;100.00;101035.19;5072733;28;20041;-76
2022/10/10 07:43:25;;;;;;;21.70;11.30;;;;;;;7.82;100.00;101041.66;5102623;28;20561;-78
2022/10/10 07:45:53;;;;;;;20.40;11.48;;;;;;;7.36;100.00;101038.31;5113557;28;20044;-78
2022/10/10 07:48:20;;;;;;;18.33;10.70;;;;;;;7.27;100.00;101043.03;5112893;28;20050;-75
2022/10/10 07:50:48;;;;;;;19.80;11.40;;;;;;;7.02;100.00;101041.78;5112866;28;20043;-74
2022/10/10 07:53:15;;;;;;;25.17;12.23;;;;;;;7.07;100.00;101042.56;5108490;28;20417;-75
2022/10/10 07:55:44;;;;;;;21.73;12.40;;;;;;;7.47;100.00;101037.16;5100275;28;20512;-74
2022/10/10 07:58:13;;;;;;;23.30;12.52;;;;;;;7.43;100.00;101028.28;5101173;28;20077;-74
2022/10/10 08:00:41;;;;;;;21.88;12.45;;;;;;;7.68;100.00;101030.38;5102439;28;20044;-74
2022/10/10 08:03:08;;;;;;;23.67;12.70;;;;;;;7.86;100.00;101041.56;5095026;28;20052;-74
2022/10/10 08:05:40;;;;;;;23.27;12.55;;;;;;;8.04;100.00;101030.34;5101873;28;20077;-74
2022/10/10 08:08:07;;;;;;;25.52;13.02;;;;;;;8.05;100.00;101032.09;5112813;28;20431;-74
2022/10/10 08:10:35;;;;;;;24.25;13.35;;;;;;;8.23;100.00;101040.59;5105208;28;20040;-73
2022/10/10 08:13:03;;;;;;;25.00;13.73;;;;;;;8.38;100.00;101031.22;5103516;28;20048;-74
2022/10/10 08:15:32;;;;;;;23.17;13.13;;;;;;;8.06;100.00;101032.97;5103578;28;20123;-74
2022/10/10 08:17:59;;;;;;;27.30;15.63;;;;;;;8.25;100.00;101028.88;5102779;27;20055;-74
2022/10/10 08:20:27;;;;;;;30.05;17.15;;;;;;;8.47;100.00;101032.78;5103118;28;20442;-74
2022/10/10 08:22:54;;;;;;;26.50;14.60;;;;;;;8.81;100.00;101026.44;5099506;28;20054;-74
2022/10/10 08:25:22;;;;;;;28.30;15.43;;;;;;;9.25;100.00;101028.66;5104030;28;20043;-74
2022/10/10 08:27:50;;;;;;;28.60;15.63;;;;;;;9.24;100.00;101029.59;5105326;28;20055;-74
2022/10/10 08:30:17;;;;;;;30.05;17.02;;;;;;;9.34;100.00;101022.97;5104173;28;20044;-74
2022/10/10 08:32:46;;;;;;;30.85;16.70;;;;;;;9.56;100.00;101016.88;5105997;28;20104;-74
2022/10/10 08:35:14;;;;;;;27.00;15.73;;;;;;;9.68;100.00;101002.09;5106765;28;20116;-74
2022/10/10 08:37:42;;;;;;;27.90;16.02;;;;;;;9.90;100.00;101006.72;5105396;28;20055;-74
2022/10/10 08:40:12;;;;;;;27.52;16.30;;;;;;;10.21;100.00;101005.66;5105875;28;20051;-73
2022/10/10 08:42:41;;;;;;;25.13;15.10;;;;;;;10.13;100.00;101001.41;5100503;28;20052;-73
2022/10/10 08:45:13;;;;;;;26.83;15.07;;;;;;;10.34;100.00;100990.75;5112715;28;20419;-74
2022/10/10 08:47:46;;;;;;;27.30;14.63;;;;;;;10.40;100.00;100990.59;5110902;28;20523;-75
2022/10/10 08:50:17;;;;;;;22.77;12.80;;;;;;;10.79;100.00;100993.59;5102382;28;20504;-74
2022/10/10 08:52:48;;;;;;;23.45;13.30;;;;;;;10.68;100.00;100985.94;5111285;28;20044;-75
2022/10/10 08:55:19;;;;;;;24.30;12.52;;;;;;;10.83;100.00;100987.16;5101367;28;20398;-73
2022/10/10 08:57:50;;;;;;;23.67;13.32;;;;;;;10.96;100.00;100983.03;5110126;28;20047;-74
2022/10/10 09:00:21;;;;;;;19.95;11.85;;;;;;;11.32;100.00;100980.72;5099021;28;20117;-75
2022/10/10 09:02:51;;;;;;;20.42;11.35;;;;;;;11.57;100.00;100976.03;5111057;28;20071;-74
2022/10/10 09:05:21;;;;;;;21.15;10.98;;;;;;;11.63;100.00;100971.31;5112358;28;20092;-74
2022/10/10 09:08:04;;;;;;;20.55;10.82;;;;;;;11.77;100.00;100970.69;5108255;28;20036;-74
2022/10/10 09:10:36;;;;;;;18.35;10.50;;;;;;;11.80;100.00;100963.34;5112542;28;20057;-73
2022/10/10 09:13:10;;;;;;;19.58;9.60;;;;;;;11.86;100.00;100973.91;5116222;28;20404;-74
2022/10/10 09:15:45;;;;;;;17.08;9.05;;;;;;;12.07;100.00;100970.34;5112577;28;20333;-75
2022/10/10 09:18:21;;;;;;;19.00;9.23;;;;;;;12.16;100.00;100975.34;5108261;28;20116;-75
2022/10/10 09:20:53;;;;;;;13.45;6.95;;;;;;;12.20;100.00;100963.41;5106180;28;20564;-74
2022/10/10 09:23:24;;;;;;;13.65;5.80;;;;;;;12.10;100.00;100967.50;5107668;28;20052;-75
2022/10/10 09:25:54;;;;;;;12.07;5.40;;;;;;;12.19;100.00;100964.38;5112783;28;20058;-75
2022/10/10 09:28:37;;;;;;;11.25;5.60;;;;;;;12.47;100.00;100952.25;5116039;28;20044;-74
2022/10/10 09:31:13;;;;;;;10.25;5.40;;;;;;;12.37;100.00;100949.09;5115708;28;20048;-74
2022/10/10 09:33:45;;;;;;;12.17;5.53;;;;;;;12.54;100.00;100948.31;5115651;28;20047;-74
2022/10/10 09:36:16;;;;;;;10.25;4.75;;;;;;;12.34;100.00;100946.53;5115596;28;20048;-75
2022/10/10 09:38:48;;;;;;;11.95;5.00;;;;;;;12.48;100.00;100954.03;5115226;28;20557;-74
2022/10/10 09:41:17;;;;;;;12.55;4.40;;;;;;;12.37;98.92;100946.38;5114166;28;20055;-77
2022/10/10 09:43:45;;;;;;;12.50;4.40;;;;;;;12.60;98.58;100941.72;5111817;28;20059;-75
2022/10/10 09:46:12;;;;;;;8.55;3.90;;;;;;;12.63;96.94;100947.00;5112374;28;20054;-74
2022/10/10 09:48:43;;;;;;;8.35;3.30;;;;;;;12.78;97.14;100945.41;5111942;28;20053;-74
2022/10/10 09:51:14;;;;;;;9.70;3.47;;;;;;;12.92;97.16;100938.41;5112513;28;20055;-74
2022/10/10 09:53:42;;;;;;;9.73;2.90;;;;;;;12.64;94.93;100943.34;5114811;28;20043;-74
2022/10/10 09:56:16;;;;;;;10.68;3.25;;;;;;;12.86;92.95;100937.75;5111488;28;20050;-75
2022/10/10 09:58:45;;;;;;;6.57;2.95;;;;;;;13.03;93.23;100922.50;5112199;28;20051;-75
2022/10/10 10:01:14;;;;;;;7.72;3.20;;;;;;;13.04;92.39;100930.56;5111741;28;20054;-75
2022/10/10 10:03:43;;;;;;;9.85;3.10;;;;;;;12.99;92.11;100932.63;5104725;28;20043;-76
2022/10/10 10:06:14;;;;;;;8.75;3.13;;;;;;;13.21;91.12;100923.41;5091424;28;20043;-74
2022/10/10 10:08:42;;;;;;;10.10;3.22;;;;;;;13.30;91.29;100922.97;5091402;28;20052;-75
2022/10/10 10:11:27;;;;;;;7.75;2.80;;;;;;;13.26;90.05;100921.38;5091212;28;20891;-76
2022/10/10 10:13:55;;;;;;;7.35;2.53;;;;;;;13.11;89.39;100920.31;5090251;28;20669;-75
2022/10/10 10:16:32;;;;;;;6.82;2.55;;;;;;;13.07;87.59;100928.66;5109002;28;20111;-75
2022/10/10 10:19:01;;;;;;;6.55;2.67;;;;;;;13.18;86.56;100924.47;5114627;28;20043;-75
2022/10/10 10:21:29;;;;;;;4.95;2.30;;;;;;;13.07;85.50;100915.09;5111859;28;20117;-75
2022/10/10 10:23:59;;;;;;;6.20;2.70;;;;;;;13.29;85.10;100913.06;5111735;28;20055;-74
2022/10/10 10:26:31;;;;;;;7.25;2.55;;;;;;;13.46;86.74;100906.81;5111381;28;20480;-75
2022/10/10 10:28:58;;;;;;;9.20;3.25;;;;;;;13.69;85.42;100893.00;5115322;28;20056;-74
2022/10/10 10:31:38;;;;;;;9.93;3.10;;;;;;;13.80;83.19;100897.84;5111216;28;20435;-74
2022/10/10 10:34:22;;;;;;;10.38;3.30;;;;;;;13.95;83.05;100883.47;5114940;28;20051;-75
2022/10/10 10:36:54;;;;;;;8.45;3.45;;;;;;;13.97;83.02;100886.06;5114397;28;20054;-75
2022/10/10 10:39:44;;;;;;;11.43;3.55;;;;;;;13.74;85.03;100880.06;5091436;28;20055;-74
2022/10/10 10:42:22;;;;;;;11.45;3.40;;;;;;;13.89;84.57;100881.09;5105982;28;20443;-74
2022/10/10 10:44:54;;;;;;;9.00;4.05;;;;;;;14.03;84.24;100872.16;5113730;28;20044;-73
2022/10/10 10:47:37;;;;;;;10.38;4.22;;;;;;;13.80;84.79;100867.97;5107746;28;20059;-74
2022/10/10 10:50:23;;;;;;;11.57;4.35;;;;;;;13.82;85.85;100866.06;5106112;28;20052;-73
2022/10/10 10:52:57;;;;;;;10.18;4.18;;;;;;;13.94;82.06;100867.22;5104107;28;20045;-75
2022/10/10 10:55:35;;;;;;;9.05;3.72;;;;;;;14.10;81.36;100860.03;5106698;28;20040;-75
2022/10/10 10:58:31;;;;;;;9.05;3.70;;;;;;;13.98;81.43;100861.56;5103720;28;20502;-74
2022/10/10 11:01:01;;;;;;;12.52;4.00;;;;;;;13.91;81.12;100854.72;5100816;28;20463;-74
2022/10/10 11:03:42;;;;;;;8.20;3.60;;;;;;;14.07;81.23;100853.88;5102982;28;20044;-74
2022/10/10 11:06:20;;;;;;;10.40;3.88;;;;;;;14.06;80.77;100850.25;5101722;28;20044;-73
2022/10/10 11:09:03;;;;;;;7.60;3.45;;;;;;;14.37;80.09;100854.00;5102438;28;20044;-74
2022/10/10 11:11:42;;;;;;;6.28;3.03;;;;;;;14.26;78.33;100857.31;5103746;27;20488;-74
2022/10/10 11:14:18;;;;;;;7.20;2.88;;;;;;;14.51;77.13;100841.47;5101572;28;20040;-76
2022/10/10 11:16:50;;;;;;;7.15;2.75;;;;;;;14.56;76.35;100851.09;5103248;28;20093;-73
2022/10/10 11:19:24;;;;;;;8.98;2.53;;;;;;;14.47;76.52;100846.19;5104121;28;20053;-75
2022/10/10 11:21:59;;;;;;;7.38;2.80;;;;;;;14.56;76.63;100851.09;5104976;28;20594;-73
2022/10/10 11:24:36;;;;;;;8.35;2.67;;;;;;;14.91;74.03;100847.38;5103473;27;20610;-76
2022/10/10 11:27:10;;;;;;;5.72;2.35;;;;;;;14.97;72.14;100843.38;5108556;28;20039;-74